Hendley, Nebraska
Current Conditions -  °F | °C
As of 11:53 AM on Sunday 25 Jan 2015 (Local Time) from KMCK Reporting Station
Clear Clear  
Wind Chill: 41°   Ceiling: Unl
Heat Index: 49°   Visibility: 10mi
Dew Point: 23°   Wind: 30mph
Humidity: 36%   Direction: 330°NNW
Pressure: 30.1"   Gusts: 40mph
Location:  40.13°N, 99.97°W
Report Text: KMCK 251753Z AUTO 33026G35KT 10SM CLR 09/M05 A3010 RMK AO2 PK WND 34035/1748 SLP198 T00941050 10094 20022 51014
Loading
Personal Weather Stations






























Interactive Weather Map New forecast layout! Learn more

10-Day Weather Forecast

Advertisements
Track Severe Weather on mobile